createdAt,value
2022-08-18T00:04:55.355Z,18.02
2022-08-18T00:10:01.498Z,17.42
2022-08-18T00:15:07.085Z,18.60
2022-08-18T00:20:15.686Z,17.98
2022-08-18T00:25:19.683Z,16.92
2022-08-18T00:30:22.841Z,20.92
2022-08-18T00:35:31.026Z,18.20
2022-08-18T00:40:49.043Z,17.98
2022-08-18T00:45:51.800Z,18.40
2022-08-18T00:50:57.919Z,23.05
2022-08-18T00:56:20.696Z,21.48
2022-08-18T01:01:25.963Z,23.42
2022-08-18T01:06:33.331Z,26.02
2022-08-18T01:11:38.314Z,26.98
2022-08-18T01:16:59.371Z,24.13
2022-08-18T01:22:12.268Z,25.77
2022-08-18T01:27:18.506Z,33.85
2022-08-18T01:32:23.818Z,30.00
2022-08-18T01:37:26.500Z,29.33
2022-08-18T01:42:29.204Z,27.17
2022-08-18T01:47:47.102Z,25.63
2022-08-18T01:52:52.700Z,28.63
2022-08-18T01:57:56.205Z,30.17
2022-08-18T02:03:02.656Z,32.90
2022-08-18T02:08:06.530Z,36.30
2022-08-18T02:13:09.384Z,33.83
2022-08-18T02:18:25.738Z,41.25
2022-08-18T02:23:52.184Z,32.35
2022-08-18T02:28:56.391Z,34.13
2022-08-18T02:33:59.817Z,34.10
2022-08-18T02:39:02.274Z,34.78
2022-08-18T02:44:05.027Z,32.40
2022-08-18T02:49:08.328Z,34.25
2022-08-18T02:54:11.708Z,29.42
2022-08-18T02:59:16.875Z,29.38
2022-08-18T03:04:30.031Z,31.05
2022-08-18T03:09:34.489Z,30.30
2022-08-18T03:14:40.230Z,28.75
2022-08-18T03:19:45.244Z,28.95
2022-08-18T03:29:53.733Z,35.67
2022-08-18T03:34:56.217Z,35.38
2022-08-18T03:39:58.654Z,31.17
2022-08-18T03:45:01.285Z,27.98
2022-08-18T03:50:15.600Z,29.00
2022-08-18T03:55:18.161Z,29.08
2022-08-18T04:00:20.742Z,28.88
2022-08-18T04:05:23.253Z,27.73
2022-08-18T04:10:25.984Z,29.35
2022-08-18T04:15:28.434Z,27.10
2022-08-18T04:20:33.956Z,27.58
2022-08-18T04:25:36.359Z,27.23
2022-08-18T04:30:38.826Z,25.13
2022-08-18T04:35:41.656Z,23.85
2022-08-18T04:40:44.140Z,24.50
2022-08-18T04:45:46.788Z,22.48
2022-08-18T04:50:49.326Z,21.98
2022-08-18T04:55:53.684Z,23.33
2022-08-18T05:01:01.481Z,22.92
2022-08-18T05:06:05.810Z,21.17
2022-08-18T05:11:09.564Z,20.00
2022-08-18T05:16:18.031Z,20.20
2022-08-18T05:21:27.565Z,21.10
2022-08-18T05:31:51.190Z,22.58
2022-08-18T05:37:08.766Z,21.00
2022-08-18T05:42:19.669Z,20.85
2022-08-18T05:47:29.103Z,20.77
2022-08-18T05:52:44.879Z,21.70
2022-08-18T05:57:57.383Z,21.02
2022-08-18T06:03:13.346Z,22.58
2022-08-18T06:08:17.215Z,20.02
2022-08-18T06:13:20.687Z,20.17
2022-08-18T06:18:35.791Z,17.52
2022-08-18T06:23:55.999Z,17.38
2022-08-18T06:29:25.243Z,15.88
2022-08-18T06:34:42.905Z,18.70
2022-08-18T06:44:51.981Z,16.35
2022-08-18T06:50:15.737Z,18.05
2022-08-18T06:55:19.771Z,18.63
2022-08-18T07:00:25.869Z,19.40
2022-08-18T07:05:33.363Z,15.38
2022-08-18T07:10:40.307Z,15.55
2022-08-18T07:15:45.477Z,16.35
2022-08-18T07:20:54.149Z,15.63
2022-08-18T07:26:02.122Z,20.02
2022-08-18T07:31:35.383Z,17.55
2022-08-18T07:36:47.730Z,16.58
2022-08-18T07:41:57.570Z,17.20
2022-08-18T07:47:07.057Z,14.15
2022-08-18T07:52:44.248Z,16.92
2022-08-18T07:57:43.323Z,13.15
2022-08-18T08:03:01.950Z,12.98
2022-08-18T08:08:21.442Z,12.75
2022-08-18T08:13:56.774Z,13.15
2022-08-18T08:19:22.006Z,14.02
2022-08-18T08:24:44.591Z,13.50
2022-08-18T08:29:55.786Z,14.13
2022-08-18T08:35:03.086Z,13.75
2022-08-18T08:45:21.195Z,11.60
2022-08-18T08:50:27.566Z,11.50
2022-08-18T08:55:36.895Z,10.70
2022-08-18T09:06:00.747Z,11.35
2022-08-18T09:11:27.501Z,10.00
2022-08-18T09:17:08.979Z,9.60
2022-08-18T09:22:38.100Z,9.15
2022-08-18T09:28:09.770Z,10.25
2022-08-18T09:33:26.354Z,9.68
2022-08-18T09:38:50.005Z,8.95
2022-08-18T09:44:17.703Z,8.27
2022-08-18T09:49:23.990Z,8.60
2022-08-18T09:54:31.727Z,8.55
2022-08-18T09:59:35.095Z,8.55
2022-08-18T10:04:51.466Z,8.98
2022-08-18T10:10:59.444Z,9.23
2022-08-18T10:15:35.596Z,8.95
2022-08-18T10:20:41.331Z,8.77
2022-08-18T10:25:48.808Z,10.00
2022-08-18T10:31:06.306Z,10.13
2022-08-18T10:36:51.016Z,9.45
2022-08-18T10:42:06.279Z,9.27
2022-08-18T10:47:12.080Z,8.85
2022-08-18T10:52:47.253Z,10.13
2022-08-18T10:58:28.031Z,11.88
2022-08-18T11:03:51.604Z,11.98
2022-08-18T11:09:00.574Z,7.77
2022-08-18T11:14:13.979Z,7.68
2022-08-18T11:19:18.057Z,9.98
2022-08-18T11:24:31.694Z,9.25
2022-08-18T11:29:35.387Z,7.50
2022-08-18T11:34:51.886Z,8.13
2022-08-18T11:39:58.134Z,14.83
2022-08-18T11:45:24.888Z,67.60
2022-08-18T11:50:30.840Z,9.83
2022-08-18T11:55:34.506Z,34.63
2022-08-18T12:01:03.788Z,50.13
2022-08-18T12:06:19.086Z,71.07
2022-08-18T12:11:31.411Z,26.42
2022-08-18T12:16:37.543Z,87.30
2022-08-18T12:21:45.130Z,39.85
2022-08-18T12:26:48.647Z,9.45
2022-08-18T12:31:55.886Z,31.45
2022-08-18T12:37:01.285Z,17.58
2022-08-18T12:42:03.695Z,8.75
2022-08-18T12:47:14.304Z,10.25
2022-08-18T12:52:17.289Z,8.60
2022-08-18T12:57:51.682Z,15.10
2022-08-18T13:02:49.364Z,14.45
2022-08-18T13:07:52.390Z,26.88
2022-08-18T13:12:55.163Z,24.65
2022-08-18T13:17:59.232Z,8.88
2022-08-18T13:23:01.711Z,15.02
2022-08-18T13:28:04.403Z,15.35
2022-08-18T13:33:57.121Z,12.27
2022-08-18T13:38:30.221Z,5.32
2022-08-18T13:43:37.812Z,5.88
2022-08-18T13:48:42.105Z,15.93
2022-08-18T13:53:57.623Z,8.40
2022-08-18T13:59:01.727Z,6.13
2022-08-18T14:04:12.719Z,5.28
2022-08-18T14:09:20.023Z,5.80
2022-08-18T14:14:38.036Z,5.50
2022-08-18T14:19:59.408Z,6.47
2022-08-18T14:25:22.870Z,5.40
2022-08-18T14:30:25.607Z,5.55
2022-08-18T14:35:33.818Z,5.25
2022-08-18T14:40:45.635Z,5.03
2022-08-18T14:45:49.181Z,5.50
2022-08-18T14:50:54.778Z,5.22
2022-08-18T14:55:59.890Z,5.30
2022-08-18T15:01:08.289Z,5.13
2022-08-18T15:06:16.875Z,4.55
2022-08-18T15:16:31.646Z,5.65
2022-08-18T15:21:56.440Z,8.50
2022-08-18T15:27:05.523Z,4.88
2022-08-18T15:32:10.577Z,6.80
2022-08-18T15:37:13.118Z,5.20
2022-08-18T15:42:15.656Z,5.35
2022-08-18T15:47:20.983Z,5.05
2022-08-18T15:52:27.675Z,5.15
2022-08-18T15:57:39.851Z,4.80
2022-08-18T16:02:44.507Z,4.50
2022-08-18T16:07:51.854Z,4.03
2022-08-18T16:12:55.171Z,5.10
2022-08-18T16:17:57.600Z,5.20
2022-08-18T16:23:00.830Z,4.60
2022-08-18T16:28:03.535Z,4.30
2022-08-18T16:33:07.214Z,3.80
2022-08-18T16:38:11.140Z,3.97
2022-08-18T16:43:14.969Z,3.95
2022-08-18T16:48:17.548Z,3.88
2022-08-18T16:53:20.022Z,4.00
2022-08-18T16:58:40.849Z,4.55
2022-08-18T17:04:02.012Z,4.15
2022-08-18T17:09:10.160Z,4.32
2022-08-18T17:14:12.827Z,5.60
2022-08-18T17:19:15.306Z,5.43
2022-08-18T17:24:18.539Z,9.02
2022-08-18T17:29:44.170Z,9.85
2022-08-18T17:34:51.776Z,6.05
2022-08-18T17:40:10.240Z,5.50
2022-08-18T17:45:22.017Z,6.55
2022-08-18T17:50:47.926Z,6.93
2022-08-18T17:55:53.434Z,7.30
2022-08-18T18:00:55.903Z,7.15
2022-08-18T18:06:05.687Z,8.70
2022-08-18T18:11:12.050Z,49.45
2022-08-18T18:16:22.097Z,84.32
2022-08-18T18:22:00.720Z,106.05
2022-08-18T18:26:49.213Z,22.50
2022-08-18T18:32:00.945Z,8.45
2022-08-18T18:37:03.563Z,20.98
2022-08-18T18:42:17.659Z,7.55
2022-08-18T18:47:32.352Z,17.13
2022-08-18T18:52:56.557Z,12.90
2022-08-18T18:58:17.551Z,7.32
2022-08-18T19:03:27.862Z,6.35
2022-08-18T19:08:36.226Z,6.63
2022-08-18T19:13:43.170Z,7.65
2022-08-18T19:19:35.398Z,7.05
2022-08-18T19:29:30.005Z,7.57
2022-08-18T19:34:37.636Z,6.63
2022-08-18T19:40:01.379Z,7.43
2022-08-18T19:45:42.271Z,7.55
2022-08-18T19:50:50.748Z,7.10
2022-08-18T19:56:04.987Z,8.55
2022-08-18T20:01:21.050Z,7.93
2022-08-18T20:06:48.375Z,8.57
2022-08-18T20:12:23.206Z,9.38
2022-08-18T20:17:27.115Z,8.85
2022-08-18T20:22:39.838Z,10.02
2022-08-18T20:27:44.924Z,8.80
2022-08-18T20:33:07.151Z,8.60
2022-08-18T20:38:15.615Z,8.63
2022-08-18T20:43:32.987Z,10.90
2022-08-18T20:48:38.010Z,10.52
2022-08-18T20:53:53.167Z,8.70
2022-08-18T20:59:08.683Z,10.70
2022-08-18T21:04:11.720Z,10.85
2022-08-18T21:09:18.738Z,11.75
2022-08-18T21:14:29.780Z,12.35
2022-08-18T21:19:41.346Z,10.82
2022-08-18T21:24:49.913Z,11.07
2022-08-18T21:29:53.530Z,11.35
2022-08-18T21:34:56.267Z,12.38
2022-08-18T21:40:01.008Z,11.88
2022-08-18T21:45:03.533Z,11.93
2022-08-18T21:50:18.167Z,12.02
2022-08-18T21:55:26.792Z,11.07
2022-08-18T22:00:34.089Z,10.88
2022-08-18T22:05:58.849Z,11.05
2022-08-18T22:12:01.279Z,11.35
2022-08-18T22:22:41.860Z,12.35
2022-08-18T22:27:49.779Z,13.93
2022-08-18T22:32:52.686Z,14.98
2022-08-18T22:37:55.262Z,16.35
2022-08-18T22:42:58.427Z,16.23
2022-08-18T22:48:01.354Z,16.17
2022-08-18T22:53:03.991Z,17.88
2022-08-18T22:58:06.399Z,15.93
2022-08-18T23:03:11.837Z,17.50
2022-08-18T23:08:14.534Z,15.63
2022-08-18T23:13:18.101Z,16.60
2022-08-18T23:18:22.484Z,16.05
2022-08-18T23:23:26.195Z,15.55
2022-08-18T23:28:29.019Z,16.25
2022-08-18T23:33:32.470Z,16.05
2022-08-18T23:38:38.365Z,16.13
2022-08-18T23:43:42.244Z,16.67
2022-08-18T23:48:49.705Z,14.80
2022-08-18T23:53:54.275Z,16.98
2022-08-18T23:58:57.412Z,14.05
